Indian Wells, California
Current Conditions -  °F | °C
As of 1:52 AM on Friday 19 Dec 2014 (Local Time) from KTRM Reporting Station
Clear Clear  
Wind Chill: 43°   Ceiling: Unl
Heat Index: 47°   Visibility: 10mi
Dew Point: 40°   Wind: 8mph
Humidity: 77%   Direction: 350°N
Pressure: 30.19"   Gusts: NA
Location:  33.72°N, 116.31°W
Report Text: KTRM 190952Z AUTO 35007KT 10SM CLR 08/04 A3019 RMK AO2 SLP222 T00830044 TSNO
Loading
Personal Weather Stations






























Interactive Weather Map New forecast layout! Learn more

10-Day Weather Forecast

Advertisements
Track Severe Weather on mobile